Time;durP1;ratioP1;P1;durP2;ratioP2;P2;SDS_P1;SDS_P2;PMS_P1;PMS_P2;Temp;Humidity;BMP_temperature;BMP_pressure;BME280_temperature;BME280_humidity;BME280_pressure;Samples;Min_cycle;Max_cycle;Signal;HPM_P1;HPM_P2
2021/09/17 04:31:48;;;;;;;3.53;3.22;;;22.30;63.00;;;;;;5109546;27;21482;-69
2021/09/17 04:34:52;;;;;;;3.65;3.35;;;22.30;63.00;;;;;;5089282;28;20105;-72
2021/09/17 04:37:18;;;;;;;3.60;3.30;;;22.30;63.00;;;;;;5036814;28;20081;-72
2021/09/17 04:39:44;;;;;;;3.90;3.58;;;22.30;63.00;;;;;;5027224;28;20056;-72
2021/09/17 04:42:10;;;;;;;3.45;3.15;;;22.30;62.90;;;;;;5056983;28;20142;-72
2021/09/17 05:22:31;;;;;;;3.58;3.28;;;22.30;62.90;;;;;;5086420;28;20107;-69
2021/09/17 05:32:14;;;;;;;3.70;3.40;;;22.30;62.90;;;;;;5084407;28;20047;-69
2021/09/17 05:35:06;;;;;;;3.63;3.33;;;22.20;62.90;;;;;;5088214;28;20044;-72
2021/09/17 05:37:33;;;;;;;4.03;3.72;;;22.30;62.90;;;;;;5070456;28;20501;-72
2021/09/17 05:39:59;;;;;;;4.30;3.90;;;22.30;62.90;;;;;;5092855;28;20028;-72
2021/09/17 05:42:24;;;;;;;3.95;3.65;;;22.30;62.90;;;;;;5091921;28;20086;-72
2021/09/17 05:44:50;;;;;;;4.18;3.78;;;22.30;62.80;;;;;;5084174;28;20075;-72
2021/09/17 05:47:17;;;;;;;3.70;3.40;;;22.30;62.80;;;;;;5095748;28;20131;-72
2021/09/17 05:49:43;;;;;;;3.47;3.17;;;22.30;62.80;;;;;;5072556;28;20025;-71
2021/09/17 05:52:09;;;;;;;4.03;3.65;;;22.30;62.80;;;;;;5089019;28;20040;-71
2021/09/17 05:54:59;;;;;;;4.25;3.95;;;22.30;62.80;;;;;;5092859;28;20032;-72
2021/09/17 06:00:26;;;;;;;3.70;3.40;;;22.30;62.70;;;;;;5038288;28;20053;-70
2021/09/17 06:03:29;;;;;;;4.07;3.78;;;22.30;62.70;;;;;;5044571;28;20419;-69
2021/09/17 06:06:46;;;;;;;3.97;3.67;;;22.30;62.70;;;;;;5038242;28;20524;-69
2021/09/17 06:19:25;;;;;;;3.88;3.58;;;22.30;62.80;;;;;;4947382;28;20043;-71
2021/09/17 06:50:43;;;;;;;4.45;4.05;;;22.20;62.90;;;;;;4850449;29;20041;-71
2021/09/17 06:53:11;;;;;;;5.50;4.97;;;22.20;62.80;;;;;;4924614;29;20158;-70
2021/09/17 07:00:10;;;;;;;4.93;4.43;;;22.20;62.80;;;;;;5003801;28;20405;-71
2021/09/17 07:27:03;;;;;;;5.97;5.45;;;22.20;62.80;;;;;;5003759;28;20033;-71
2021/09/17 07:36:44;;;;;;;5.93;5.32;;;22.30;62.90;;;;;;5080650;28;20030;-70
2021/09/17 07:39:13;;;;;;;6.28;5.63;;;22.30;63.00;;;;;;5078942;28;20109;-70
2021/09/17 07:41:39;;;;;;;6.07;5.47;;;22.20;62.90;;;;;;5084641;28;20051;-72
2021/09/17 07:44:06;;;;;;;6.70;6.00;;;22.30;63.00;;;;;;5086084;28;20040;-70
2021/09/17 07:46:32;;;;;;;6.65;5.95;;;22.30;63.00;;;;;;5078129;28;20044;-70
2021/09/17 07:48:58;;;;;;;6.78;6.10;;;22.30;62.90;;;;;;5081417;28;20032;-70
2021/09/17 07:52:01;;;;;;;6.00;5.40;;;22.30;62.90;;;;;;5087978;28;20145;-70
2021/09/17 07:57:15;;;;;;;5.63;5.05;;;22.30;62.80;;;;;;5084092;28;20051;-70
2021/09/17 07:59:41;;;;;;;6.10;5.47;;;22.30;62.90;;;;;;5086145;28;20024;-70
2021/09/17 08:02:07;;;;;;;6.13;5.53;;;22.30;62.90;;;;;;5083810;28;20115;-71
2021/09/17 08:04:33;;;;;;;6.32;5.72;;;22.30;62.90;;;;;;5086595;28;20395;-71
2021/09/17 08:07:00;;;;;;;6.30;5.70;;;22.30;62.90;;;;;;5084671;28;20040;-71
2021/09/17 08:09:25;;;;;;;6.88;6.18;;;22.40;63.00;;;;;;5086582;28;20379;-70
2021/09/17 08:11:51;;;;;;;10.95;9.15;;;22.40;63.00;;;;;;5088180;28;20033;-70
2021/09/17 08:14:17;;;;;;;12.52;11.00;;;22.40;63.20;;;;;;5087218;28;20639;-71
2021/09/17 08:16:44;;;;;;;15.38;12.63;;;22.40;63.40;;;;;;5088300;28;20101;-72
2021/09/17 08:19:10;;;;;;;14.40;12.80;;;22.40;63.50;;;;;;5084628;28;20475;-71
2021/09/17 08:21:41;;;;;;;16.02;12.77;;;22.30;63.40;;;;;;5085390;28;20032;-71
2021/09/17 08:24:14;;;;;;;14.98;12.80;;;22.40;63.60;;;;;;5088755;28;20036;-71
2021/09/17 08:26:49;;;;;;;16.70;13.82;;;22.30;63.50;;;;;;5087100;28;20077;-71
2021/09/17 08:29:15;;;;;;;14.13;12.23;;;22.30;63.60;;;;;;5086006;28;20429;-69
2021/09/17 08:31:41;;;;;;;13.07;11.55;;;22.30;63.60;;;;;;5087500;28;20085;-70
2021/09/17 08:34:08;;;;;;;14.07;11.63;;;22.30;63.60;;;;;;5084184;28;20028;-70
2021/09/17 08:36:36;;;;;;;12.82;10.88;;;22.30;63.70;;;;;;5083779;28;20075;-69
2021/09/17 08:39:04;;;;;;;13.57;10.70;;;22.30;63.70;;;;;;5095833;28;20060;-69
2021/09/17 08:41:30;;;;;;;13.38;10.77;;;22.30;63.70;;;;;;5104037;28;20179;-69
2021/09/17 08:43:56;;;;;;;12.60;10.73;;;22.30;63.80;;;;;;5105758;28;20051;-70
2021/09/17 08:46:22;;;;;;;14.52;10.45;;;22.30;63.80;;;;;;5103169;28;20040;-70
2021/09/17 08:48:49;;;;;;;14.25;10.90;;;22.30;63.80;;;;;;5105363;28;20475;-70
2021/09/17 08:51:16;;;;;;;12.20;10.10;;;22.30;63.70;;;;;;5088989;28;20035;-70
2021/09/17 08:53:42;;;;;;;12.02;10.20;;;22.40;63.80;;;;;;5108292;27;20035;-70
2021/09/17 08:56:11;;;;;;;12.98;10.30;;;22.40;64.40;;;;;;5100974;27;20028;-70
2021/09/17 08:58:37;;;;;;;12.70;10.57;;;22.40;63.80;;;;;;5102152;27;20680;-70
2021/09/17 09:01:03;;;;;;;14.57;12.48;;;22.40;63.70;;;;;;5102299;27;20043;-70
2021/09/17 09:03:34;;;;;;;13.25;10.63;;;22.40;63.80;;;;;;5110048;27;20134;-69
2021/09/17 09:06:10;;;;;;;13.07;10.32;;;22.40;63.80;;;;;;5108243;27;20100;-69
2021/09/17 09:08:39;;;;;;;12.20;10.82;;;22.40;63.80;;;;;;5106089;27;20059;-70
2021/09/17 09:11:20;;;;;;;13.70;11.00;;;22.40;63.90;;;;;;5106800;27;20501;-69
2021/09/17 09:14:05;;;;;;;13.23;10.20;;;22.40;63.90;;;;;;5108986;28;20036;-70
2021/09/17 09:16:32;;;;;;;13.75;11.30;;;22.40;63.80;;;;;;5106903;27;20168;-69
2021/09/17 09:19:19;;;;;;;17.20;13.63;;;22.40;63.80;;;;;;5082146;27;20040;-70
2021/09/17 09:21:47;;;;;;;14.50;11.93;;;22.30;63.80;;;;;;5104280;28;20047;-70
2021/09/17 09:24:42;;;;;;;13.77;11.25;;;22.30;63.80;;;;;;5103592;27;20054;-70
2021/09/17 09:27:14;;;;;;;11.25;9.75;;;22.30;63.80;;;;;;5101164;27;20121;-70
2021/09/17 09:29:41;;;;;;;12.50;11.18;;;22.30;63.80;;;;;;5104433;28;20446;-70
2021/09/17 09:32:07;;;;;;;13.70;11.07;;;22.30;63.80;;;;;;5102466;27;20036;-70
2021/09/17 09:34:51;;;;;;;14.05;10.60;;;22.30;63.80;;;;;;5107310;27;20036;-70
2021/09/17 09:37:18;;;;;;;14.32;12.38;;;22.40;63.90;;;;;;5098469;28;20101;-69
2021/09/17 09:39:51;;;;;;;12.90;11.07;;;22.40;63.80;;;;;;5089585;28;20035;-70
2021/09/17 09:42:30;;;;;;;14.93;12.63;;;22.40;63.90;;;;;;5104035;28;20084;-70
2021/09/17 09:45:26;;;;;;;12.85;11.02;;;22.40;64.00;;;;;;5097970;28;20044;-70
2021/09/17 09:47:53;;;;;;;13.52;11.10;;;22.40;64.00;;;;;;5093021;28;20119;-70
2021/09/17 09:50:25;;;;;;;12.73;11.32;;;22.40;63.90;;;;;;5105964;28;20054;-70
2021/09/17 09:52:52;;;;;;;16.33;12.82;;;22.40;63.90;;;;;;5103806;28;20127;-70
2021/09/17 09:55:18;;;;;;;16.17;12.80;;;22.40;64.00;;;;;;5115226;27;20140;-69
2021/09/17 09:57:45;;;;;;;15.60;11.80;;;22.40;64.00;;;;;;5109343;28;20453;-70
2021/09/17 10:00:13;;;;;;;11.90;10.65;;;22.40;64.00;;;;;;5090715;28;20043;-70
2021/09/17 10:02:40;;;;;;;12.15;10.30;;;22.50;64.00;;;;;;5102759;27;20036;-70
2021/09/17 10:05:08;;;;;;;13.40;10.48;;;22.50;64.00;;;;;;5108903;28;20039;-70
2021/09/17 10:07:34;;;;;;;12.38;11.07;;;22.50;64.00;;;;;;5106931;28;20055;-69
2021/09/17 10:10:02;;;;;;;12.48;10.55;;;22.50;64.00;;;;;;5109783;28;20024;-69
2021/09/17 10:12:28;;;;;;;12.45;10.43;;;22.50;63.90;;;;;;5104848;28;20039;-65
2021/09/17 10:14:56;;;;;;;13.55;11.73;;;22.50;63.80;;;;;;5099952;27;20040;-66
2021/09/17 10:17:31;;;;;;;12.65;11.18;;;22.50;63.80;;;;;;5099359;27;20252;-66
2021/09/17 10:19:59;;;;;;;11.63;9.90;;;22.50;63.70;;;;;;5104519;27;20028;-66
2021/09/17 10:22:34;;;;;;;11.75;10.40;;;22.50;63.70;;;;;;5110075;27;20031;-66
2021/09/17 10:25:22;;;;;;;11.35;9.90;;;22.60;63.70;;;;;;5106744;28;20049;-66
2021/09/17 10:28:11;;;;;;;16.30;10.20;;;22.60;63.80;;;;;;5082908;28;20035;-66
2021/09/17 10:30:40;;;;;;;13.70;9.60;;;22.60;63.80;;;;;;5106176;27;20065;-66
2021/09/17 10:33:26;;;;;;;16.60;11.88;;;22.60;63.70;;;;;;5108209;27;20028;-66
2021/09/17 10:35:52;;;;;;;12.70;11.32;;;22.60;63.70;;;;;;5098298;27;20680;-66
2021/09/17 10:38:30;;;;;;;11.70;10.13;;;22.60;63.80;;;;;;5101956;27;20411;-67
2021/09/17 10:40:59;;;;;;;13.30;10.27;;;22.60;63.80;;;;;;5105958;27;20042;-68
2021/09/17 10:43:43;;;;;;;11.02;9.80;;;22.60;63.80;;;;;;5108787;27;20214;-68
2021/09/17 10:46:19;;;;;;;14.98;12.13;;;22.60;63.70;;;;;;5114367;27;20448;-69
2021/09/17 10:48:57;;;;;;;14.80;12.65;;;22.60;63.20;;;;;;5109090;27;20031;-67
2021/09/17 10:51:37;;;;;;;16.63;13.52;;;22.60;63.20;;;;;;5101634;28;20043;-67
2021/09/17 10:54:06;;;;;;;13.98;12.50;;;22.60;63.20;;;;;;5109312;27;20534;-67
2021/09/17 10:57:34;;;;;;;11.98;10.77;;;22.50;63.30;;;;;;5111078;27;20039;-64
2021/09/17 11:03:55;;;;;;;11.63;9.15;;;22.50;63.40;;;;;;5025273;28;20063;-64
2021/09/17 11:11:23;;;;;;;;;;;;;;;;;;;;;
2021/09/17 11:13:51;;;;;;;8.93;7.63;;;22.60;63.40;;;;;;4910462;28;20053;-63
2021/09/17 11:16:19;;;;;;;9.80;8.07;;;22.60;63.50;;;;;;5034316;28;20037;-60
2021/09/17 11:19:00;;;;;;;8.65;7.78;;;22.60;63.40;;;;;;5103782;27;20466;-61
2021/09/17 11:21:29;;;;;;;10.68;8.43;;;22.70;63.40;;;;;;5105872;28;20156;-63
2021/09/17 11:23:56;;;;;;;8.43;7.05;;;22.70;63.40;;;;;;5082553;27;20038;-62
2021/09/17 11:26:29;;;;;;;8.32;7.10;;;22.70;63.30;;;;;;5105092;28;20830;-61
2021/09/17 11:29:11;;;;;;;8.40;7.18;;;22.70;63.30;;;;;;5109184;27;20031;-64
2021/09/17 11:31:43;;;;;;;7.40;6.17;;;22.70;63.30;;;;;;5108452;27;20039;-63
2021/09/17 11:34:12;;;;;;;7.82;6.90;;;22.70;63.30;;;;;;5102128;28;20048;-63
2021/09/17 11:36:55;;;;;;;9.25;6.97;;;22.70;63.30;;;;;;5112748;27;20393;-62
2021/09/17 11:39:28;;;;;;;9.13;7.15;;;22.80;64.00;;;;;;5101007;28;20039;-62
2021/09/17 11:42:08;;;;;;;7.95;7.15;;;22.80;63.30;;;;;;5107143;28;20062;-63
2021/09/17 11:44:40;;;;;;;8.15;7.32;;;22.80;63.30;;;;;;5103918;28;20020;-63
2021/09/17 11:47:28;;;;;;;7.53;6.40;;;22.80;63.30;;;;;;5108820;28;20043;-62
2021/09/17 11:49:57;;;;;;;7.30;6.40;;;22.80;63.30;;;;;;5107011;28;20031;-62
2021/09/17 11:52:24;;;;;;;7.97;6.95;;;22.80;63.30;;;;;;5100370;28;20036;-62
2021/09/17 11:55:10;;;;;;;7.57;6.63;;;22.80;63.20;;;;;;5107679;28;20044;-63
2021/09/17 11:57:43;;;;;;;7.88;6.35;;;22.80;63.20;;;;;;5104560;28;20474;-61
2021/09/17 12:00:20;;;;;;;7.20;6.00;;;22.80;63.20;;;;;;5102727;28;20071;-62
2021/09/17 12:03:12;;;;;;;9.13;6.97;;;22.80;63.10;;;;;;5109751;28;20024;-62
2021/09/17 12:06:04;;;;;;;8.02;6.18;;;22.80;63.10;;;;;;5101595;28;20063;-63
2021/09/17 12:28:44;;;;;;;6.50;5.78;;;22.90;63.10;;;;;;5036143;28;20043;-63
2021/09/17 12:31:49;;;;;;;7.25;6.43;;;22.90;63.10;;;;;;5040366;28;20104;-64
2021/09/17 12:34:17;;;;;;;6.78;6.07;;;23.00;63.10;;;;;;5079257;28;20042;-64
2021/09/17 12:36:49;;;;;;;8.10;6.63;;;23.00;63.10;;;;;;5110037;27;20169;-64
2021/09/17 12:39:23;;;;;;;8.63;7.13;;;23.00;63.10;;;;;;5107218;28;20479;-64
2021/09/17 12:42:07;;;;;;;6.95;6.25;;;23.00;63.00;;;;;;5106894;28;20031;-64
2021/09/17 12:44:48;;;;;;;8.40;6.55;;;23.00;63.00;;;;;;5105600;28;20046;-64
2021/09/17 12:47:50;;;;;;;6.90;6.20;;;23.00;63.00;;;;;;5110587;27;20039;-64
2021/09/17 12:50:50;;;;;;;;;;;;;;;;;;;;;
2021/09/17 12:57:19;;;;;;;6.88;6.18;;;23.10;62.90;;;;;;5106147;27;20034;-64
2021/09/17 13:00:34;;;;;;;7.75;6.80;;;23.10;62.80;;;;;;5104165;28;20475;-64
2021/09/17 13:03:04;;;;;;;7.40;6.43;;;23.10;62.80;;;;;;5109782;28;20102;-64
2021/09/17 13:05:32;;;;;;;7.40;6.60;;;23.10;62.80;;;;;;5115482;27;20023;-64
2021/09/17 13:07:58;;;;;;;8.23;6.82;;;23.10;62.80;;;;;;5108285;27;20027;-64
2021/09/17 13:10:25;;;;;;;8.85;7.72;;;23.20;62.70;;;;;;5107563;28;20120;-64
2021/09/17 13:13:06;;;;;;;7.85;7.05;;;23.20;62.70;;;;;;5105595;28;20027;-64
2021/09/17 13:15:33;;;;;;;8.48;7.57;;;23.10;62.60;;;;;;5104590;28;20114;-64
2021/09/17 13:17:59;;;;;;;7.43;6.57;;;23.20;62.60;;;;;;5110177;27;20482;-64
2021/09/17 13:20:25;;;;;;;8.45;7.18;;;23.20;62.50;;;;;;5100391;28;20433;-64
2021/09/17 13:22:53;;;;;;;11.73;9.68;;;23.10;62.50;;;;;;5101504;28;20614;-63
2021/09/17 13:25:20;;;;;;;14.57;11.93;;;23.10;62.30;;;;;;5108366;27;20031;-65
2021/09/17 13:27:50;;;;;;;14.27;12.13;;;23.20;62.00;;;;;;5107879;28;20122;-68
2021/09/17 13:30:18;;;;;;;12.30;11.05;;;23.10;61.80;;;;;;5106962;28;20059;-69
2021/09/17 13:32:45;;;;;;;11.32;9.55;;;23.10;61.90;;;;;;5091564;27;20076;-69
2021/09/17 13:35:12;;;;;;;10.23;9.13;;;23.10;62.00;;;;;;5107639;28;20039;-67
2021/09/17 13:37:38;;;;;;;10.60;9.40;;;23.10;62.00;;;;;;5117938;27;20460;-67
2021/09/17 13:40:13;;;;;;;10.30;9.02;;;23.10;62.10;;;;;;5109799;27;20672;-68
2021/09/17 13:42:40;;;;;;;11.20;9.20;;;23.20;62.20;;;;;;5105212;28;20036;-68
2021/09/17 13:45:09;;;;;;;15.88;12.63;;;23.10;62.20;;;;;;5104661;27;20036;-68
2021/09/17 13:47:35;;;;;;;10.90;9.35;;;23.10;62.80;;;;;;5106059;27;20031;-67
2021/09/17 13:50:02;;;;;;;10.82;9.73;;;23.10;62.30;;;;;;5108336;28;20054;-67
2021/09/17 13:52:28;;;;;;;13.52;11.30;;;23.20;62.50;;;;;;5107499;27;20462;-69
2021/09/17 13:54:54;;;;;;;11.82;9.90;;;23.20;61.80;;;;;;5103107;27;20024;-69
2021/09/17 13:57:19;;;;;;;11.73;9.48;;;23.10;61.60;;;;;;5109328;27;20066;-69
2021/09/17 13:59:46;;;;;;;12.10;9.57;;;23.20;61.50;;;;;;5101744;28;20130;-69
2021/09/17 14:02:12;;;;;;;12.07;10.48;;;23.10;61.20;;;;;;5112480;27;20088;-69
2021/09/17 14:04:38;;;;;;;10.50;9.10;;;23.20;61.00;;;;;;5102329;27;20047;-62
2021/09/17 14:07:04;;;;;;;11.68;9.32;;;23.20;60.80;;;;;;5082370;28;20081;-59
2021/09/17 14:09:30;;;;;;;12.75;10.00;;;23.20;60.70;;;;;;5090857;28;20483;-59
2021/09/17 14:11:56;;;;;;;10.80;8.65;;;23.20;60.50;;;;;;5109824;27;20031;-59
2021/09/17 14:14:22;;;;;;;11.30;8.15;;;23.20;60.60;;;;;;5113229;27;20050;-59
2021/09/17 14:16:49;;;;;;;11.18;8.40;;;23.20;60.70;;;;;;5109915;27;20479;-59
2021/09/17 14:19:15;;;;;;;11.60;8.27;;;23.20;60.60;;;;;;5114494;27;20055;-59
2021/09/17 14:21:43;;;;;;;9.65;6.93;;;23.20;60.60;;;;;;5101989;28;20465;-59
2021/09/17 14:24:10;;;;;;;12.10;9.02;;;23.20;60.60;;;;;;5103980;27;20618;-60
2021/09/17 14:26:37;;;;;;;8.95;6.70;;;23.30;60.50;;;;;;5112904;27;20089;-60
2021/09/17 14:29:04;;;;;;;9.75;8.20;;;23.30;60.60;;;;;;5090244;28;20134;-58
2021/09/17 14:31:30;;;;;;;11.40;8.60;;;23.30;60.00;;;;;;5106846;28;20028;-59
2021/09/17 14:33:55;;;;;;;11.88;8.38;;;23.20;59.90;;;;;;5095255;28;20036;-59
2021/09/17 14:36:21;;;;;;;11.43;8.52;;;23.30;59.80;;;;;;5090596;28;20526;-66
2021/09/17 14:38:47;;;;;;;11.38;8.30;;;23.20;59.80;;;;;;5103578;28;20121;-65
2021/09/17 14:41:13;;;;;;;11.27;8.13;;;23.30;59.70;;;;;;5104157;28;20078;-66
2021/09/17 14:43:48;;;;;;;10.90;8.43;;;23.30;59.70;;;;;;5085917;28;20051;-67
2021/09/17 14:46:14;;;;;;;8.70;6.95;;;23.30;59.70;;;;;;5103347;28;20118;-66
2021/09/17 14:48:40;;;;;;;9.27;7.25;;;23.30;59.50;;;;;;5110697;27;20457;-67
2021/09/17 14:51:06;;;;;;;8.75;6.93;;;23.30;59.20;;;;;;5106203;27;20036;-67
2021/09/17 14:53:32;;;;;;;8.45;6.72;;;23.30;59.10;;;;;;5102824;27;20035;-69
2021/09/17 14:55:58;;;;;;;11.55;8.10;;;23.30;59.10;;;;;;5080347;27;20066;-66
2021/09/17 14:58:24;;;;;;;9.98;7.80;;;23.30;58.60;;;;;;5103153;27;20080;-66
2021/09/17 15:00:50;;;;;;;10.90;7.68;;;23.30;58.80;;;;;;5101756;28;20092;-66
2021/09/17 15:03:16;;;;;;;10.05;8.07;;;23.40;59.20;;;;;;5091098;28;20363;-66
2021/09/17 15:05:42;;;;;;;10.98;8.20;;;23.40;59.40;;;;;;5112691;27;20046;-66
2021/09/17 15:08:08;;;;;;;11.80;8.80;;;23.40;59.30;;;;;;5106311;27;20134;-66
2021/09/17 15:10:35;;;;;;;11.70;8.95;;;23.50;59.30;;;;;;5105443;28;20058;-65
2021/09/17 15:13:01;;;;;;;11.77;8.80;;;23.40;59.30;;;;;;5112859;27;20042;-65
2021/09/17 15:15:28;;;;;;;11.88;8.80;;;23.50;59.40;;;;;;5117413;27;20054;-65
2021/09/17 15:17:56;;;;;;;11.75;9.10;;;23.40;59.40;;;;;;5081445;28;20059;-64
2021/09/17 15:20:23;;;;;;;11.65;8.93;;;23.50;59.40;;;;;;5102817;28;20638;-64
2021/09/17 15:22:49;;;;;;;12.27;9.38;;;23.40;59.50;;;;;;5107395;27;20134;-67
2021/09/17 15:25:18;;;;;;;13.43;9.55;;;23.40;60.20;;;;;;5107525;27;20104;-67
2021/09/17 15:27:46;;;;;;;12.30;8.27;;;23.40;59.50;;;;;;5106026;27;20044;-66
2021/09/17 15:30:12;;;;;;;11.23;8.23;;;23.40;59.70;;;;;;5086392;28;20398;-67
2021/09/17 15:32:38;;;;;;;10.82;8.55;;;23.40;59.80;;;;;;5108450;28;20051;-65
2021/09/17 15:35:05;;;;;;;11.00;8.18;;;23.40;59.90;;;;;;5107664;27;20067;-69
2021/09/17 15:37:30;;;;;;;14.00;7.65;;;23.40;60.00;;;;;;5106325;27;20189;-70
2021/09/17 15:39:56;;;;;;;12.15;7.28;;;23.40;59.90;;;;;;5107813;28;20506;-70
2021/09/17 15:42:25;;;;;;;9.70;7.35;;;23.40;60.00;;;;;;5104992;28;20039;-69
2021/09/17 15:44:53;;;;;;;10.10;7.40;;;23.40;60.00;;;;;;5089020;28;20039;-69
2021/09/17 15:47:19;;;;;;;9.50;7.15;;;23.40;60.10;;;;;;5108551;28;20047;-70
2021/09/17 15:49:45;;;;;;;7.32;6.47;;;23.40;60.10;;;;;;5104748;28;20059;-69
2021/09/17 15:52:11;;;;;;;8.68;6.68;;;23.40;60.20;;;;;;5104370;28;20060;-70
2021/09/17 15:54:36;;;;;;;9.48;7.25;;;23.40;60.20;;;;;;5103298;28;20044;-70
2021/09/17 15:57:02;;;;;;;9.35;6.95;;;23.40;60.30;;;;;;5105809;28;20051;-69
2021/09/17 15:59:28;;;;;;;9.35;6.90;;;23.40;60.30;;;;;;5101447;28;20036;-70
2021/09/17 16:01:54;;;;;;;8.38;6.60;;;23.30;60.30;;;;;;5107910;28;20031;-69
2021/09/17 16:04:20;;;;;;;7.78;5.95;;;23.40;60.40;;;;;;5088920;28;20042;-69
2021/09/17 16:06:46;;;;;;;7.22;5.75;;;23.30;60.50;;;;;;5110539;28;20047;-69
2021/09/17 16:09:13;;;;;;;7.20;5.57;;;23.30;60.60;;;;;;5091332;28;20032;-70
2021/09/17 16:11:39;;;;;;;6.55;5.82;;;23.30;60.60;;;;;;5111758;27;20116;-69
2021/09/17 16:14:05;;;;;;;8.35;5.95;;;23.30;60.70;;;;;;5091045;28;20520;-69
2021/09/17 16:16:31;;;;;;;7.53;5.82;;;23.30;60.70;;;;;;5109774;27;20036;-69
2021/09/17 16:18:58;;;;;;;7.47;5.40;;;23.30;60.80;;;;;;5110458;28;20421;-71
2021/09/17 16:21:24;;;;;;;6.60;5.18;;;23.30;60.90;;;;;;5113278;27;20443;-70
2021/09/17 16:23:50;;;;;;;7.38;6.13;;;23.30;61.00;;;;;;5106525;27;20406;-71
2021/09/17 16:26:16;;;;;;;9.35;7.53;;;23.30;61.00;;;;;;5107772;27;20035;-70
2021/09/17 16:28:42;;;;;;;10.73;8.57;;;23.30;61.10;;;;;;5085897;28;20477;-71
2021/09/17 16:31:08;;;;;;;10.80;7.78;;;23.30;61.30;;;;;;5087178;28;20454;-71
2021/09/17 16:33:34;;;;;;;8.20;6.72;;;23.30;61.40;;;;;;5105932;27;20115;-70
2021/09/17 16:36:00;;;;;;;8.43;6.40;;;23.20;61.40;;;;;;5104980;27;20043;-71
2021/09/17 16:38:25;;;;;;;7.22;5.97;;;23.30;61.70;;;;;;5109999;27;20075;-71
2021/09/17 16:40:51;;;;;;;7.57;5.63;;;23.30;61.80;;;;;;5087829;28;20120;-71
2021/09/17 16:43:17;;;;;;;7.53;5.85;;;23.20;61.80;;;;;;5111214;27;20811;-70
2021/09/17 16:45:45;;;;;;;8.27;5.38;;;23.20;61.90;;;;;;5088486;28;20036;-71
2021/09/17 16:48:12;;;;;;;6.47;5.82;;;23.20;62.10;;;;;;5108086;28;20398;-70
2021/09/17 16:50:38;;;;;;;6.60;5.32;;;23.20;62.20;;;;;;5101218;28;20047;-68
2021/09/17 16:53:04;;;;;;;6.53;5.25;;;23.20;62.80;;;;;;5110113;28;20043;-68
2021/09/17 16:55:48;;;;;;;7.63;5.90;;;23.20;62.40;;;;;;5108028;27;20565;-69
2021/09/17 16:58:14;;;;;;;7.63;5.03;;;23.20;62.60;;;;;;5110085;28;20035;-68
2021/09/17 17:00:40;;;;;;;6.88;5.80;;;23.20;62.70;;;;;;5094799;28;20035;-69
2021/09/17 17:03:06;;;;;;;6.80;6.10;;;23.10;62.80;;;;;;5107934;28;20031;-68
2021/09/17 17:05:32;;;;;;;8.73;6.68;;;23.10;63.00;;;;;;5103914;28;20035;-68
2021/09/17 17:07:57;;;;;;;7.40;6.22;;;23.10;63.10;;;;;;5110650;27;20054;-68
2021/09/17 17:10:23;;;;;;;8.00;7.18;;;23.10;63.20;;;;;;5064863;28;20380;-68
2021/09/17 17:12:49;;;;;;;8.10;6.75;;;23.10;63.30;;;;;;5105513;28;20117;-68
2021/09/17 17:15:15;;;;;;;8.45;7.38;;;23.10;63.40;;;;;;5107150;27;20157;-69
2021/09/17 17:17:41;;;;;;;7.97;7.18;;;23.10;63.50;;;;;;5109312;27;20136;-68
2021/09/17 17:20:07;;;;;;;8.23;7.03;;;23.10;64.30;;;;;;5108700;28;20039;-68
2021/09/17 17:22:33;;;;;;;8.77;7.15;;;23.00;63.70;;;;;;5088678;28;20466;-68
2021/09/17 17:24:59;;;;;;;12.15;8.40;;;23.00;63.80;;;;;;5108490;28;20032;-65
2021/09/17 17:27:25;;;;;;;10.23;8.15;;;23.00;63.80;;;;;;5102795;27;20048;-67
2021/09/17 17:29:50;;;;;;;8.50;7.47;;;23.00;63.80;;;;;;5108224;27;20450;-67
2021/09/17 17:32:16;;;;;;;10.15;7.85;;;23.00;63.90;;;;;;5107082;27;20039;-67
2021/09/17 17:34:43;;;;;;;7.97;7.15;;;23.00;63.90;;;;;;5096595;28;20059;-68
2021/09/17 17:37:09;;;;;;;9.77;7.95;;;23.00;63.90;;;;;;5109963;27;20517;-67
2021/09/17 17:39:36;;;;;;;10.07;8.40;;;23.00;63.90;;;;;;5104291;28;20047;-67
2021/09/17 17:42:03;;;;;;;10.18;8.05;;;23.00;63.90;;;;;;5103393;27;20180;-67
2021/09/17 17:44:30;;;;;;;12.95;8.90;;;23.00;63.90;;;;;;5113201;27;20128;-67
2021/09/17 17:46:56;;;;;;;9.75;8.57;;;23.00;63.90;;;;;;5109719;27;20482;-67
2021/09/17 17:49:23;;;;;;;9.95;8.15;;;23.00;64.00;;;;;;5111271;27;20036;-68
2021/09/17 17:51:49;;;;;;;10.70;9.07;;;23.00;64.00;;;;;;5108375;28;20036;-67
2021/09/17 17:54:15;;;;;;;8.27;7.28;;;23.00;64.00;;;;;;5104376;27;20020;-67
2021/09/17 17:56:41;;;;;;;9.63;8.27;;;23.00;64.00;;;;;;5101994;28;20044;-67
2021/09/17 17:59:06;;;;;;;9.02;7.65;;;23.00;64.00;;;;;;5102701;27;20407;-67
2021/09/17 18:01:32;;;;;;;9.00;7.70;;;23.00;63.90;;;;;;5107908;27;20094;-68
2021/09/17 18:03:59;;;;;;;8.70;7.47;;;23.00;63.90;;;;;;5111278;27;20031;-67
2021/09/17 18:06:25;;;;;;;9.25;7.30;;;23.00;63.90;;;;;;5105699;27;20050;-67
2021/09/17 18:08:50;;;;;;;9.27;7.25;;;23.00;63.90;;;;;;5100195;28;20036;-67
2021/09/17 18:11:16;;;;;;;9.73;7.22;;;23.00;63.90;;;;;;5107733;28;20032;-67
2021/09/17 18:13:42;;;;;;;9.35;7.88;;;23.10;64.60;;;;;;5103192;27;20042;-67
2021/09/17 18:16:09;;;;;;;9.20;7.63;;;23.00;63.90;;;;;;5104017;28;20555;-67
2021/09/17 18:18:35;;;;;;;8.20;7.10;;;23.10;64.00;;;;;;5101011;27;20075;-67
2021/09/17 18:21:08;;;;;;;8.45;7.45;;;23.10;64.00;;;;;;5107629;27;20112;-61
2021/09/17 18:23:34;;;;;;;7.32;6.60;;;23.10;64.00;;;;;;5106739;28;20059;-62
2021/09/17 18:26:00;;;;;;;8.35;6.80;;;23.10;64.00;;;;;;5104454;27;20063;-63
2021/09/17 18:28:26;;;;;;;8.55;6.95;;;23.10;64.00;;;;;;5103904;28;20035;-63
2021/09/17 18:30:52;;;;;;;8.27;7.13;;;23.10;64.00;;;;;;5088521;28;20618;-62
2021/09/17 18:33:18;;;;;;;7.95;7.07;;;23.00;63.90;;;;;;5106098;28;20130;-64
2021/09/17 18:35:44;;;;;;;7.85;7.05;;;23.10;64.00;;;;;;5106597;28;20066;-63
2021/09/17 18:38:10;;;;;;;8.50;7.30;;;23.10;64.00;;;;;;5106941;27;20039;-62
2021/09/17 18:40:39;;;;;;;11.07;8.00;;;23.10;64.00;;;;;;5106224;28;20044;-62
2021/09/17 18:43:05;;;;;;;9.13;6.95;;;23.10;64.00;;;;;;5108672;27;20506;-62
2021/09/17 18:45:33;;;;;;;8.27;6.95;;;23.10;64.00;;;;;;5104675;27;20077;-63
2021/09/17 18:48:00;;;;;;;8.70;7.43;;;23.00;64.00;;;;;;5107616;27;20402;-62
2021/09/17 18:50:26;;;;;;;8.65;7.45;;;23.10;64.10;;;;;;5104003;28;20033;-62
2021/09/17 18:52:53;;;;;;;9.00;7.53;;;23.10;64.10;;;;;;5105198;28;20533;-64
2021/09/17 18:55:19;;;;;;;8.68;6.95;;;23.10;64.10;;;;;;5107403;27;20420;-63
2021/09/17 18:57:46;;;;;;;8.88;7.68;;;23.10;64.10;;;;;;5107744;27;20039;-63
2021/09/17 19:00:13;;;;;;;8.35;7.07;;;23.10;64.10;;;;;;5103959;27;20072;-61
2021/09/17 19:02:56;;;;;;;7.57;6.80;;;23.10;64.10;;;;;;5108464;27;20063;-64
2021/09/17 19:08:47;;;;;;;6.93;6.33;;;23.10;64.10;;;;;;5105924;28;20063;-63
2021/09/17 19:11:13;;;;;;;7.57;6.03;;;23.10;64.10;;;;;;5108586;27;20451;-61
2021/09/17 19:13:42;;;;;;;8.20;6.38;;;23.00;64.10;;;;;;5108333;27;20063;-63
2021/09/17 19:16:08;;;;;;;6.30;5.70;;;23.10;64.10;;;;;;5105174;28;20105;-63
2021/09/17 19:18:35;;;;;;;6.85;6.15;;;23.00;64.10;;;;;;5088750;28;20466;-63
2021/09/17 19:21:14;;;;;;;7.15;6.45;;;23.10;64.10;;;;;;5101449;28;20042;-63
2021/09/17 19:23:59;;;;;;;6.45;5.82;;;23.10;64.10;;;;;;5089424;28;20032;-64
2021/09/17 19:26:25;;;;;;;7.00;6.30;;;23.00;64.10;;;;;;5094076;28;20040;-63
2021/09/17 19:28:52;;;;;;;7.00;6.30;;;23.00;64.10;;;;;;5101018;28;20032;-64
2021/09/17 19:31:18;;;;;;;6.65;5.82;;;23.00;64.10;;;;;;5082647;28;20626;-63
2021/09/17 19:33:47;;;;;;;6.25;5.65;;;23.00;64.10;;;;;;5098023;28;20043;-62
2021/09/17 19:43:37;;;;;;;6.88;5.93;;;23.00;64.10;;;;;;5059627;28;20038;-63
2021/09/17 19:46:03;;;;;;;7.18;6.15;;;23.00;64.20;;;;;;5084421;28;20494;-63
2021/09/17 19:48:29;;;;;;;6.90;6.30;;;23.00;64.20;;;;;;5101437;28;20407;-63
2021/09/17 20:08:07;;;;;;;5.93;4.85;;;23.00;64.30;;;;;;5093591;28;20096;-63
2021/09/17 20:16:37;;;;;;;5.65;5.13;;;22.90;64.30;;;;;;5071714;28;20043;-63
2021/09/17 20:19:04;;;;;;;6.65;5.40;;;22.90;64.30;;;;;;5078596;28;20035;-63
2021/09/17 20:21:34;;;;;;;6.07;5.47;;;22.90;64.30;;;;;;5102169;28;20031;-63
2021/09/17 20:24:01;;;;;;;5.80;5.20;;;22.90;64.30;;;;;;5108884;28;20046;-61
2021/09/17 20:26:27;;;;;;;5.90;5.30;;;23.00;64.30;;;;;;5106785;28;20257;-62
2021/09/17 20:29:02;;;;;;;5.28;4.78;;;23.00;64.30;;;;;;5107700;28;20039;-63
2021/09/17 20:31:31;;;;;;;5.32;4.82;;;23.00;64.30;;;;;;5103890;28;20028;-63
2021/09/17 20:34:05;;;;;;;5.63;5.10;;;23.00;64.30;;;;;;5102374;28;20031;-63
2021/09/17 20:36:36;;;;;;;5.63;5.10;;;23.00;64.30;;;;;;5103125;28;20031;-64
2021/09/17 20:39:25;;;;;;;5.43;4.87;;;23.00;64.30;;;;;;5104465;28;20614;-63
2021/09/17 20:41:51;;;;;;;5.93;5.22;;;23.00;64.40;;;;;;5105224;28;20055;-63